Time;durP1;ratioP1;P1;durP2;ratioP2;P2;SDS_P1;SDS_P2;PMS_P1;PMS_P2;Temp;Humidity;BMP_temperature;BMP_pressure;BME280_temperature;BME280_humidity;BME280_pressure;Samples;Min_cycle;Max_cycle;Signal;HPM_P1;HPM_P2
2022/07/13 00:01:02;;;;;;;3.77;2.30;;;21.70;99.90;;;;;;5137951;27;20070;-81
2022/07/13 00:03:27;;;;;;;2.90;2.10;;;22.10;99.90;;;;;;5137702;27;20111;-81
2022/07/13 00:05:53;;;;;;;3.73;2.40;;;21.70;99.90;;;;;;5154931;27;20034;-80
2022/07/13 00:08:18;;;;;;;4.50;2.33;;;21.50;99.90;;;;;;5137429;27;20050;-80
2022/07/13 00:10:44;;;;;;;3.63;2.47;;;21.80;99.90;;;;;;5155880;27;20055;-81
2022/07/13 00:13:10;;;;;;;3.80;2.40;;;22.20;99.90;;;;;;5137509;27;20050;-79
2022/07/13 00:15:35;;;;;;;4.77;2.50;;;21.20;99.90;;;;;;5155755;27;20043;-80
2022/07/13 00:18:01;;;;;;;5.73;2.97;;;21.50;99.90;;;;;;5156030;27;20043;-79
2022/07/13 00:20:27;;;;;;;6.97;2.47;;;21.50;99.90;;;;;;5155646;27;20363;-80
2022/07/13 00:22:54;;;;;;;4.03;2.58;;;21.50;99.90;;;;;;5155577;27;20486;-80
2022/07/13 00:25:20;;;;;;;5.90;3.03;;;21.10;99.90;;;;;;5137356;27;20053;-79
2022/07/13 00:27:46;;;;;;;4.20;2.60;;;21.50;99.90;;;;;;5155506;27;20039;-80
2022/07/13 00:30:11;;;;;;;5.60;2.70;;;21.20;99.90;;;;;;5137276;27;20046;-81
2022/07/13 00:32:37;;;;;;;5.20;2.67;;;21.10;99.90;;;;;;5136903;27;20053;-79
2022/07/13 00:35:03;;;;;;;7.83;2.70;;;21.40;99.90;;;;;;5155531;27;20039;-81
2022/07/13 00:37:29;;;;;;;4.75;2.83;;;21.40;99.90;;;;;;5155273;27;20038;-79
2022/07/13 00:39:54;;;;;;;6.83;3.10;;;21.50;99.90;;;;;;5155234;27;20050;-79
2022/07/13 00:42:20;;;;;;;5.73;3.50;;;21.50;99.90;;;;;;5155380;27;20087;-80
2022/07/13 00:44:45;;;;;;;5.43;3.23;;;21.50;99.90;;;;;;5155840;27;20371;-80
2022/07/13 00:47:12;;;;;;;6.20;3.43;;;22.00;99.90;;;;;;5136919;27;20475;-79
2022/07/13 00:49:38;;;;;;;5.53;2.97;;;21.20;99.90;;;;;;5155446;27;20043;-80
2022/07/13 00:52:03;;;;;;;4.73;3.17;;;21.20;99.90;;;;;;5155334;27;20042;-80
2022/07/13 00:54:29;;;;;;;5.23;3.07;;;21.30;99.90;;;;;;5155406;27;20084;-81
2022/07/13 00:56:59;;;;;;;7.93;3.27;;;21.30;99.90;;;;;;5155182;27;20039;-80
2022/07/13 00:59:25;;;;;;;6.68;3.28;;;21.30;99.90;;;;;;5155247;27;20490;-79
2022/07/13 01:01:53;;;;;;;4.55;3.20;;;21.50;99.90;;;;;;5155235;27;20053;-81
2022/07/13 01:04:21;;;;;;;5.28;3.05;;;21.70;99.90;;;;;;5155036;27;20039;-80
2022/07/13 01:06:47;;;;;;;6.57;2.97;;;22.10;99.90;;;;;;5154970;27;20046;-80
2022/07/13 01:09:12;;;;;;;4.43;2.83;;;22.00;99.90;;;;;;5136767;27;20087;-80
2022/07/13 01:11:39;;;;;;;4.60;3.13;;;21.30;99.90;;;;;;5154804;27;20288;-80
2022/07/13 01:14:05;;;;;;;;;;;21.50;99.90;;;;;;5155510;27;20045;-81
2022/07/13 01:16:31;;;;;;;4.25;2.83;;;21.50;99.90;;;;;;5120836;27;19918;-79
2022/07/13 01:18:57;;;;;;;;;;;21.20;99.90;;;;;;5159561;27;20047;-80
2022/07/13 01:21:23;;;;;;;3.13;2.67;;;21.30;99.90;;;;;;5159087;27;20010;-81
2022/07/13 01:23:49;;;;;;;4.28;3.10;;;21.30;99.90;;;;;;5159088;27;20457;-80
2022/07/13 01:26:15;;;;;;;4.63;3.03;;;21.30;99.90;;;;;;5158907;27;20129;-80
2022/07/13 01:28:41;;;;;;;7.30;3.27;;;21.40;99.90;;;;;;5158885;27;20176;-81
2022/07/13 01:31:06;;;;;;;3.87;3.13;;;22.10;99.90;;;;;;5158886;27;20114;-81
2022/07/13 01:33:32;;;;;;;3.40;2.77;;;21.30;99.90;;;;;;5140449;27;20046;-80
2022/07/13 01:35:58;;;;;;;5.73;3.30;;;21.20;99.90;;;;;;5140646;27;20035;-80
2022/07/13 01:38:24;;;;;;;;;;;21.30;99.90;;;;;;5141056;27;20047;-81
2022/07/13 01:40:49;;;;;;;4.57;2.88;;;21.70;99.90;;;;;;5158363;27;20009;-81
2022/07/13 01:43:16;;;;;;;4.47;3.20;;;21.60;99.90;;;;;;5158708;27;20087;-79
2022/07/13 01:45:44;;;;;;;6.90;3.38;;;21.30;99.90;;;;;;5140349;27;20035;-81
2022/07/13 01:48:10;;;;;;;4.13;2.85;;;21.20;99.90;;;;;;5140097;27;20038;-80
2022/07/13 01:50:36;;;;;;;4.40;3.53;;;21.50;99.90;;;;;;5158501;27;20121;-80
2022/07/13 01:53:02;;;;;;;4.17;3.03;;;21.20;99.90;;;;;;5158466;27;20126;-80
2022/07/13 01:55:27;;;;;;;6.78;2.95;;;21.20;99.90;;;;;;5158343;27;20038;-81
2022/07/13 01:57:58;;;;;;;6.47;3.27;;;21.30;99.90;;;;;;5158364;27;20126;-79
2022/07/13 02:00:23;;;;;;;6.75;3.95;;;21.30;99.90;;;;;;5158666;27;20042;-79
2022/07/13 02:02:49;;;;;;;5.10;4.20;;;21.20;99.90;;;;;;5158274;27;20054;-80
2022/07/13 02:05:15;;;;;;;6.23;4.33;;;21.20;99.90;;;;;;5122835;27;20493;-79
2022/07/13 02:07:41;;;;;;;6.07;4.60;;;21.30;99.90;;;;;;5158208;27;20130;-80
2022/07/13 02:10:09;;;;;;;4.97;4.32;;;21.20;99.90;;;;;;5139514;27;20141;-80
2022/07/13 02:12:35;;;;;;;7.65;5.50;;;21.00;99.90;;;;;;5139876;27;20054;-79
2022/07/13 02:15:01;;;;;;;8.63;5.57;;;21.10;99.90;;;;;;5158050;27;20061;-80
2022/07/13 02:17:27;;;;;;;8.77;6.03;;;22.10;99.90;;;;;;5139703;27;20052;-80
2022/07/13 02:19:52;;;;;;;7.95;5.75;;;21.00;99.90;;;;;;5158014;27;20035;-80
2022/07/13 02:22:18;;;;;;;7.30;5.83;;;21.10;99.90;;;;;;5139721;27;20462;-81
2022/07/13 02:24:44;;;;;;;10.85;6.03;;;21.30;99.90;;;;;;5139629;27;20046;-80
2022/07/13 02:27:10;;;;;;;6.00;5.50;;;21.30;99.90;;;;;;5139242;27;20108;-79
2022/07/13 02:29:35;;;;;;;7.67;5.90;;;21.00;99.90;;;;;;5156599;27;20085;-80
2022/07/13 02:32:01;;;;;;;6.73;5.80;;;21.30;99.90;;;;;;5157692;27;20066;-81
2022/07/13 02:34:27;;;;;;;7.37;6.53;;;21.20;99.90;;;;;;5139222;27;20047;-81
2022/07/13 02:36:56;;;;;;;8.10;6.20;;;21.20;99.90;;;;;;5157426;27;20311;-79
2022/07/13 02:39:22;;;;;;;7.07;6.40;;;21.20;99.90;;;;;;5157531;27;20035;-81
2022/07/13 02:41:49;;;;;;;7.40;6.53;;;21.20;99.90;;;;;;5157548;27;20054;-81
2022/07/13 02:44:15;;;;;;;7.05;6.35;;;21.20;99.90;;;;;;5139290;27;20050;-80
2022/07/13 02:46:41;;;;;;;8.52;6.95;;;21.00;99.90;;;;;;5138915;27;20042;-80
2022/07/13 02:49:06;;;;;;;7.30;6.57;;;21.60;99.90;;;;;;5157332;27;20127;-79
2022/07/13 02:51:32;;;;;;;11.00;7.50;;;21.30;99.90;;;;;;5157309;27;20471;-80
2022/07/13 02:53:57;;;;;;;14.00;7.70;;;21.50;99.90;;;;;;5157221;27;20129;-80
2022/07/13 02:56:23;;;;;;;8.20;7.40;;;21.50;99.90;;;;;;5157240;27;20043;-80
2022/07/13 02:58:48;;;;;;;10.17;6.80;;;20.90;99.90;;;;;;5157306;27;20038;-80
2022/07/13 03:01:14;;;;;;;8.90;6.87;;;21.50;99.90;;;;;;5157468;27;20051;-80
2022/07/13 03:03:40;;;;;;;8.10;7.13;;;21.30;99.90;;;;;;5157061;27;20548;-81
2022/07/13 03:06:05;;;;;;;9.23;7.47;;;21.10;99.90;;;;;;5156961;27;20102;-81
2022/07/13 03:08:31;;;;;;;8.97;7.27;;;21.10;99.90;;;;;;5157149;27;20049;-81
2022/07/13 03:10:56;;;;;;;8.63;6.97;;;21.20;99.90;;;;;;5138278;27;20155;-80
2022/07/13 03:13:22;;;;;;;8.10;7.30;;;21.50;99.90;;;;;;5138687;27;20143;-80
2022/07/13 03:15:48;;;;;;;7.80;6.37;;;21.30;99.90;;;;;;5156836;27;20586;-81
2022/07/13 03:18:14;;;;;;;8.00;7.20;;;21.10;99.90;;;;;;5156533;27;20151;-80
2022/07/13 03:20:39;;;;;;;9.27;7.00;;;21.00;99.90;;;;;;5156580;27;20047;-80
2022/07/13 03:23:05;;;;;;;14.33;6.70;;;21.30;99.90;;;;;;5156646;27;20478;-80
2022/07/13 03:25:31;;;;;;;6.27;5.67;;;21.10;99.90;;;;;;5156617;27;20117;-79
2022/07/13 03:27:56;;;;;;;7.27;6.30;;;21.20;99.90;;;;;;5121502;27;20043;-80
2022/07/13 03:30:22;;;;;;;8.20;6.33;;;21.10;99.90;;;;;;5156467;27;20085;-79
2022/07/13 03:32:48;;;;;;;6.57;5.47;;;21.00;99.90;;;;;;5121326;27;20057;-80
2022/07/13 03:35:14;;;;;;;6.57;5.97;;;21.60;99.90;;;;;;5156470;27;20089;-81
2022/07/13 03:37:39;;;;;;;6.80;6.10;;;21.20;99.90;;;;;;5138034;27;20386;-81
2022/07/13 03:40:06;;;;;;;7.23;6.20;;;21.10;99.90;;;;;;5156019;27;20038;-80
2022/07/13 03:42:33;;;;;;;6.30;5.70;;;20.90;99.90;;;;;;5120819;27;20043;-80
2022/07/13 03:44:59;;;;;;;6.75;5.70;;;21.10;99.90;;;;;;5138115;27;20039;-79
2022/07/13 03:47:25;;;;;;;6.60;5.75;;;20.80;99.90;;;;;;5137711;27;20047;-80
2022/07/13 03:49:50;;;;;;;7.10;5.63;;;21.20;99.90;;;;;;5156094;27;20073;-80
2022/07/13 03:52:16;;;;;;;6.00;5.40;;;21.20;99.90;;;;;;5156112;27;20145;-80
2022/07/13 03:54:41;;;;;;;7.10;5.43;;;21.40;99.90;;;;;;5156083;27;20031;-81
2022/07/13 03:57:07;;;;;;;7.00;5.43;;;21.10;99.90;;;;;;5137594;27;20545;-79
2022/07/13 03:59:34;;;;;;;5.37;4.30;;;21.50;99.90;;;;;;5138001;27;20154;-81
2022/07/13 04:01:59;;;;;;;9.40;5.22;;;21.20;99.90;;;;;;5155885;27;20386;-79
2022/07/13 04:04:27;;;;;;;7.43;5.17;;;21.30;99.90;;;;;;5137709;27;20049;-80
2022/07/13 04:06:53;;;;;;;6.75;5.28;;;21.40;99.90;;;;;;5137631;27;20068;-81
2022/07/13 04:09:18;;;;;;;7.00;5.53;;;21.10;99.90;;;;;;5155505;27;20470;-81
2022/07/13 04:11:44;;;;;;;8.87;5.20;;;20.90;99.90;;;;;;5155822;27;20047;-81
2022/07/13 04:14:09;;;;;;;8.90;4.80;;;21.40;99.90;;;;;;5137290;27;20047;-80
2022/07/13 04:16:35;;;;;;;5.73;5.20;;;20.90;99.90;;;;;;5155716;27;20046;-81
2022/07/13 04:19:01;;;;;;;7.57;5.60;;;20.90;99.90;;;;;;5155695;27;20482;-79
2022/07/13 04:21:26;;;;;;;5.40;4.90;;;21.60;99.90;;;;;;5155674;27;20047;-81
2022/07/13 04:23:52;;;;;;;5.97;5.37;;;21.60;99.90;;;;;;5155504;27;20042;-81
2022/07/13 04:26:17;;;;;;;7.00;4.90;;;21.50;99.90;;;;;;5155602;27;20039;-80
2022/07/13 04:28:43;;;;;;;6.50;4.80;;;21.10;99.90;;;;;;5155923;27;20470;-81
2022/07/13 04:31:09;;;;;;;7.87;5.30;;;21.20;99.90;;;;;;5155529;27;20035;-80
2022/07/13 04:33:34;;;;;;;5.97;4.70;;;21.40;99.90;;;;;;5137140;27;20061;-80
2022/07/13 04:36:00;;;;;;;9.60;5.87;;;21.00;99.90;;;;;;5155637;27;20042;-80
2022/07/13 04:38:26;;;;;;;8.00;5.40;;;21.10;99.90;;;;;;5155358;27;20402;-80
2022/07/13 04:40:51;;;;;;;6.00;5.23;;;21.80;99.90;;;;;;5137079;27;20053;-80
2022/07/13 04:43:17;;;;;;;7.57;4.93;;;21.00;99.90;;;;;;5136975;27;20117;-81
2022/07/13 04:45:42;;;;;;;5.40;4.87;;;21.70;99.90;;;;;;5155370;27;20046;-80
2022/07/13 04:48:08;;;;;;;6.60;5.47;;;21.10;99.90;;;;;;5155433;27;20085;-80
2022/07/13 04:50:34;;;;;;;5.70;4.80;;;21.10;99.90;;;;;;5155260;27;20035;-79
2022/07/13 04:52:59;;;;;;;5.33;4.83;;;21.30;99.90;;;;;;5158974;27;20502;-80
2022/07/13 04:55:26;;;;;;;5.77;5.13;;;21.00;99.90;;;;;;5159523;27;20106;-80
2022/07/13 04:57:54;;;;;;;5.63;5.03;;;21.20;99.90;;;;;;5159527;27;20474;-80
2022/07/13 05:00:20;;;;;;;5.53;4.70;;;21.90;99.90;;;;;;5159556;27;20390;-81
2022/07/13 05:02:45;;;;;;;5.00;4.50;;;21.30;99.90;;;;;;5141088;27;20055;-80
2022/07/13 05:05:11;;;;;;;5.13;4.53;;;21.70;99.90;;;;;;5141228;27;20329;-80
2022/07/13 05:07:37;;;;;;;7.63;4.80;;;21.30;99.90;;;;;;5141004;27;20072;-82
2022/07/13 05:10:03;;;;;;;6.32;5.07;;;21.40;99.90;;;;;;5106639;27;20090;-82
2022/07/13 05:12:29;;;;;;;5.97;4.03;;;21.30;99.90;;;;;;5159687;27;20443;-81
2022/07/13 05:14:57;;;;;;;6.03;4.07;;;22.40;99.90;;;;;;5141566;27;20042;-82
2022/07/13 05:17:22;;;;;;;6.03;4.50;;;21.50;99.90;;;;;;5140850;27;20490;-81
2022/07/13 05:19:48;;;;;;;5.43;4.30;;;21.00;99.90;;;;;;5140676;27;20078;-81
2022/07/13 05:22:15;;;;;;;8.23;4.27;;;21.80;99.90;;;;;;5123929;27;20050;-81
2022/07/13 05:24:43;;;;;;;6.50;3.97;;;21.40;99.90;;;;;;5158924;27;20122;-81
2022/07/13 05:27:10;;;;;;;4.25;3.72;;;21.60;99.90;;;;;;5159388;27;20043;-80
2022/07/13 05:29:39;;;;;;;5.43;3.65;;;22.30;99.90;;;;;;5158855;27;20043;-79
2022/07/13 05:32:06;;;;;;;4.93;3.55;;;21.80;99.90;;;;;;5158845;27;20122;-80
2022/07/13 05:34:31;;;;;;;5.35;3.38;;;21.70;99.90;;;;;;5158667;27;20050;-80
2022/07/13 05:36:57;;;;;;;6.10;3.30;;;21.60;99.90;;;;;;5158886;27;20043;-80
2022/07/13 05:39:23;;;;;;;4.43;2.90;;;21.80;99.90;;;;;;5158363;27;20038;-80
2022/07/13 05:41:48;;;;;;;4.43;2.70;;;21.90;99.90;;;;;;5158732;27;20039;-80
2022/07/13 05:44:14;;;;;;;2.97;2.47;;;21.90;99.90;;;;;;5140303;27;20542;-80
2022/07/13 05:46:39;;;;;;;3.93;2.70;;;21.90;99.90;;;;;;5140724;27;20057;-80
2022/07/13 05:49:05;;;;;;;3.17;2.30;;;21.80;99.90;;;;;;5158450;27;20046;-81
2022/07/13 05:51:31;;;;;;;4.13;2.00;;;22.20;99.90;;;;;;5158518;27;20118;-79
2022/07/13 05:53:56;;;;;;;5.85;2.67;;;22.30;99.90;;;;;;5158462;27;20049;-79
2022/07/13 05:56:22;;;;;;;2.97;2.30;;;22.30;99.90;;;;;;5158603;27;20087;-79
2022/07/13 05:58:47;;;;;;;5.23;2.20;;;22.50;99.90;;;;;;5158461;27;20506;-77
2022/07/13 06:01:13;;;;;;;3.83;2.40;;;22.40;99.90;;;;;;5158669;27;20103;-81
2022/07/13 06:03:39;;;;;;;4.30;2.10;;;22.60;99.90;;;;;;5158207;27;20047;-85
2022/07/13 06:06:05;;;;;;;3.27;2.60;;;22.60;99.90;;;;;;5158209;27;20053;-83
2022/07/13 06:08:31;;;;;;;2.90;2.33;;;22.50;99.90;;;;;;5158058;27;20100;-85
2022/07/13 06:10:56;;;;;;;3.53;2.30;;;23.30;99.90;;;;;;5158376;27;20429;-82
2022/07/13 06:13:23;;;;;;;5.85;2.10;;;22.60;99.90;;;;;;5139830;27;20121;-91
2022/07/13 06:15:49;;;;;;;4.00;2.30;;;22.80;99.90;;;;;;5122348;27;20105;-89
2022/07/13 06:18:14;;;;;;;4.17;2.40;;;22.90;99.90;;;;;;5122483;27;20042;-88
2022/07/13 06:20:40;;;;;;;5.23;2.77;;;22.90;99.90;;;;;;5139522;27;20475;-89
2022/07/13 06:23:11;;;;;;;3.20;2.40;;;23.10;99.90;;;;;;5139342;27;20043;-89
2022/07/13 06:25:41;;;;;;;5.88;2.53;;;23.10;99.90;;;;;;5122367;27;20456;-88
2022/07/13 06:28:07;;;;;;;3.58;2.72;;;23.30;99.90;;;;;;5122461;27;20043;-88
2022/07/13 06:30:33;;;;;;;4.95;3.05;;;23.30;99.90;;;;;;5122155;27;20060;-86
2022/07/13 06:32:59;;;;;;;6.95;2.47;;;23.40;99.90;;;;;;5122262;27;20053;-86
2022/07/13 06:35:25;;;;;;;2.65;2.20;;;23.50;99.90;;;;;;5122392;27;20077;-85
2022/07/13 06:37:52;;;;;;;5.88;2.40;;;23.60;99.90;;;;;;5117164;27;20047;-88
2022/07/13 06:40:18;;;;;;;6.75;2.78;;;23.70;99.90;;;;;;5118554;27;20096;-90
2022/07/13 06:42:45;;;;;;;6.37;2.70;;;23.80;99.90;;;;;;5101830;27;20051;-91
2022/07/13 06:45:17;;;;;;;4.45;2.92;;;23.90;99.90;;;;;;5102601;27;20085;-94
2022/07/13 06:47:51;;;;;;;3.67;2.70;;;24.30;99.90;;;;;;5102760;27;20134;-95
2022/07/13 06:50:20;;;;;;;5.30;3.40;;;24.20;99.90;;;;;;5119194;27;20439;-93
2022/07/13 06:52:53;;;;;;;8.10;3.42;;;24.20;99.90;;;;;;5119413;27;20500;-93
2022/07/13 06:55:28;;;;;;;3.03;2.60;;;24.30;99.90;;;;;;5119653;27;20043;-93
2022/07/13 06:58:02;;;;;;;3.70;3.30;;;24.30;99.90;;;;;;5102082;27;20070;-92
2022/07/13 07:00:28;;;;;;;4.65;3.50;;;24.20;99.90;;;;;;5118353;27;20039;-90
2022/07/13 07:02:54;;;;;;;6.60;3.43;;;24.40;99.90;;;;;;5118208;27;20043;-90
2022/07/13 07:05:20;;;;;;;5.50;3.33;;;24.50;99.90;;;;;;5101093;27;20513;-90
2022/07/13 07:07:46;;;;;;;6.10;3.50;;;25.00;99.90;;;;;;5118461;27;20048;-91
2022/07/13 07:10:12;;;;;;;6.87;3.50;;;24.40;99.90;;;;;;5101314;27;20051;-89
2022/07/13 07:12:38;;;;;;;4.88;2.92;;;25.90;99.90;;;;;;5118412;27;20047;-87
2022/07/13 07:15:06;;;;;;;5.88;3.67;;;25.00;99.90;;;;;;5100987;27;20039;-87
2022/07/13 07:17:32;;;;;;;6.05;3.50;;;25.00;99.90;;;;;;5100731;27;20043;-83
2022/07/13 07:19:59;;;;;;;4.27;3.20;;;24.80;99.90;;;;;;5100723;27;20093;-83
2022/07/13 07:22:25;;;;;;;5.45;3.22;;;25.10;99.90;;;;;;5100673;27;20085;-81
2022/07/13 07:24:51;;;;;;;5.47;3.20;;;25.20;99.90;;;;;;5116090;27;20066;-82
2022/07/13 07:27:17;;;;;;;4.47;3.55;;;26.40;99.90;;;;;;5134643;27;20509;-81
2022/07/13 07:29:42;;;;;;;5.03;3.10;;;25.90;99.90;;;;;;5134817;27;20130;-83
2022/07/13 07:32:08;;;;;;;7.00;3.50;;;25.40;99.90;;;;;;5099791;27;20138;-85
2022/07/13 07:34:34;;;;;;;5.97;3.67;;;25.50;99.90;;;;;;5116765;27;20054;-84
2022/07/13 07:37:00;;;;;;;4.93;3.50;;;26.50;99.90;;;;;;5116958;27;20078;-84
2022/07/13 07:39:26;;;;;;;6.72;3.70;;;26.00;99.90;;;;;;5135246;27;20383;-84
2022/07/13 07:41:51;;;;;;;5.22;3.50;;;25.70;99.90;;;;;;5133998;27;20380;-85
2022/07/13 07:44:18;;;;;;;4.63;3.73;;;25.80;99.90;;;;;;5117035;27;20054;-85
2022/07/13 07:46:44;;;;;;;9.18;4.20;;;25.70;99.90;;;;;;5116844;27;20392;-84
2022/07/13 07:49:10;;;;;;;5.05;3.60;;;25.80;99.90;;;;;;5116944;27;20043;-84
2022/07/13 07:51:36;;;;;;;5.53;3.40;;;25.60;99.90;;;;;;5116825;27;20047;-84
2022/07/13 07:54:01;;;;;;;5.00;3.73;;;25.30;99.90;;;;;;5116809;27;20039;-84
2022/07/13 07:56:27;;;;;;;6.27;3.60;;;25.50;99.90;;;;;;5117107;27;20382;-84
2022/07/13 07:58:53;;;;;;;4.57;3.87;;;25.40;99.90;;;;;;5116471;27;20074;-84
2022/07/13 08:01:19;;;;;;;6.47;4.00;;;25.80;99.90;;;;;;5116943;27;20046;-84
2022/07/13 08:03:44;;;;;;;5.70;3.93;;;25.40;99.90;;;;;;5099864;27;20471;-84
2022/07/13 08:06:11;;;;;;;6.90;3.80;;;25.60;99.90;;;;;;5117065;27;20046;-84
2022/07/13 08:08:37;;;;;;;5.60;3.67;;;26.60;99.90;;;;;;5116780;27;20091;-84
2022/07/13 08:11:03;;;;;;;6.03;4.13;;;26.20;99.90;;;;;;5134916;27;20055;-84
2022/07/13 08:13:30;;;;;;;5.85;3.88;;;26.00;99.90;;;;;;5116366;27;20276;-84
2022/07/13 08:15:56;;;;;;;4.90;4.38;;;26.20;99.90;;;;;;5116341;27;20035;-84
2022/07/13 08:18:21;;;;;;;6.95;4.10;;;26.40;99.90;;;;;;5134766;27;20104;-84
2022/07/13 08:20:47;;;;;;;9.87;4.20;;;26.00;99.90;;;;;;5116732;27;20466;-84
2022/07/13 08:25:56;;;;;;;5.53;3.85;;;26.40;99.90;;;;;;5133658;27;20102;-84
2022/07/13 08:28:23;;;;;;;10.40;4.30;;;26.10;99.90;;;;;;5099271;27;20514;-84
2022/07/13 08:30:48;;;;;;;5.85;4.70;;;26.70;99.90;;;;;;5134301;27;20391;-83
2022/07/13 08:33:14;;;;;;;6.10;4.10;;;26.80;99.90;;;;;;5116614;28;20104;-82
2022/07/13 08:38:36;;;;;;;9.05;4.85;;;27.00;99.90;;;;;;5116260;27;20047;-83
2022/07/13 08:41:02;;;;;;;8.65;5.05;;;27.10;99.90;;;;;;5099377;28;20084;-83
2022/07/13 08:43:28;;;;;;;7.20;3.55;;;26.90;99.90;;;;;;5116305;28;20047;-84
2022/07/13 08:45:54;;;;;;;8.53;4.07;;;27.30;99.90;;;;;;5099519;28;20054;-84
2022/07/13 08:48:29;;;;;;;9.30;4.05;;;27.50;99.90;;;;;;5099517;28;20043;-84
2022/07/13 08:50:54;;;;;;;8.90;3.58;;;27.10;99.90;;;;;;5115905;28;20039;-84
2022/07/13 08:53:20;;;;;;;4.40;3.17;;;27.50;99.90;;;;;;5099447;28;20134;-84
2022/07/13 08:55:46;;;;;;;4.20;3.40;;;27.30;99.90;;;;;;5115902;28;20070;-83
2022/07/13 08:58:15;;;;;;;6.88;3.53;;;27.30;99.90;;;;;;5116248;28;20391;-83
2022/07/13 09:00:42;;;;;;;6.82;3.63;;;27.50;99.90;;;;;;5099972;28;20061;-84
2022/07/13 09:03:08;;;;;;;7.10;4.38;;;27.40;99.90;;;;;;5099028;28;20061;-83
2022/07/13 09:05:34;;;;;;;5.07;3.45;;;27.40;99.90;;;;;;5116264;28;20047;-83
2022/07/13 09:08:02;;;;;;;7.45;3.83;;;27.40;99.90;;;;;;5116351;28;20043;-83
2022/07/13 09:10:28;;;;;;;6.00;3.60;;;27.60;99.90;;;;;;5134092;28;20051;-83
2022/07/13 09:12:54;;;;;;;6.45;4.70;;;27.40;99.90;;;;;;5116169;28;20080;-78
2022/07/13 09:15:19;;;;;;;6.73;3.73;;;27.40;99.90;;;;;;5134749;28;20100;-78
2022/07/13 09:17:47;;;;;;;7.17;4.10;;;27.60;99.90;;;;;;5134315;28;20116;-78
2022/07/13 09:20:12;;;;;;;5.80;4.40;;;27.60;99.90;;;;;;5134383;28;20144;-78
2022/07/13 09:22:59;;;;;;;5.93;4.33;;;27.70;99.90;;;;;;5134248;28;20047;-78
2022/07/13 09:25:25;;;;;;;5.78;4.35;;;27.80;99.90;;;;;;5134654;28;20086;-78
2022/07/13 09:27:50;;;;;;;7.68;4.88;;;28.00;99.90;;;;;;5134289;28;20470;-78
2022/07/13 09:30:26;;;;;;;8.53;4.93;;;28.10;99.90;;;;;;5115875;28;20076;-78
2022/07/13 09:32:56;;;;;;;5.32;4.00;;;28.00;99.90;;;;;;5134214;28;20058;-78
2022/07/13 09:35:40;;;;;;;9.07;4.97;;;28.20;99.90;;;;;;5134140;28;20043;-78
2022/07/13 09:38:07;;;;;;;6.53;4.28;;;28.10;99.90;;;;;;5136462;27;20375;-78
2022/07/13 09:40:32;;;;;;;6.90;4.28;;;28.20;99.90;;;;;;5138316;27;20039;-78
2022/07/13 09:48:26;;;;;;;4.78;3.97;;;28.30;99.90;;;;;;5138049;27;20047;-78
2022/07/13 09:50:57;;;;;;;6.80;4.40;;;28.40;99.90;;;;;;5137720;27;20046;-78
2022/07/13 09:53:27;;;;;;;6.90;3.50;;;28.40;99.90;;;;;;5137678;27;20474;-78
2022/07/13 09:55:54;;;;;;;7.68;4.28;;;28.60;99.90;;;;;;5137679;27;20039;-79
2022/07/13 09:58:30;;;;;;;6.45;3.88;;;28.70;99.90;;;;;;5137590;27;20129;-78
2022/07/13 10:00:58;;;;;;;6.20;3.85;;;28.60;99.90;;;;;;5137647;27;20074;-78
2022/07/13 10:03:30;;;;;;;7.55;3.80;;;28.60;99.90;;;;;;5137588;27;20043;-78
2022/07/13 10:05:58;;;;;;;7.47;3.83;;;28.60;99.90;;;;;;5137558;27;20130;-78
2022/07/13 10:08:23;;;;;;;6.30;3.60;;;28.60;99.90;;;;;;5137483;27;20466;-78
2022/07/13 10:10:50;;;;;;;6.17;3.80;;;28.70;99.90;;;;;;5137315;27;20090;-81
2022/07/13 10:13:17;;;;;;;4.68;3.35;;;28.70;99.90;;;;;;5118868;27;20326;-82
2022/07/13 10:15:44;;;;;;;6.60;3.65;;;28.70;99.90;;;;;;5102218;27;20047;-82
2022/07/13 10:18:16;;;;;;;5.30;3.67;;;28.80;99.90;;;;;;5119273;27;20091;-83
2022/07/13 10:20:49;;;;;;;4.93;3.20;;;28.70;99.90;;;;;;5118502;27;20046;-83
2022/07/13 10:23:32;;;;;;;6.13;3.17;;;29.00;99.90;;;;;;5119309;27;20376;-79
2022/07/13 10:25:58;;;;;;;5.07;3.33;;;29.00;99.90;;;;;;5137423;27;20051;-80
2022/07/13 10:28:23;;;;;;;5.57;3.45;;;29.10;99.90;;;;;;5137234;27;20039;-82
2022/07/13 10:30:49;;;;;;;5.50;3.53;;;29.10;99.90;;;;;;5101744;27;20553;-82
2022/07/13 10:33:21;;;;;;;6.97;3.38;;;29.20;99.90;;;;;;5119181;27;20046;-83
2022/07/13 10:35:58;;;;;;;6.63;3.33;;;29.20;99.90;;;;;;5101892;27;20054;-83
2022/07/13 10:38:28;;;;;;;3.70;2.58;;;29.20;99.90;;;;;;5136992;27;20432;-83
2022/07/13 10:41:22;;;;;;;3.67;2.72;;;29.20;99.90;;;;;;5136867;27;20043;-82
2022/07/13 10:43:54;;;;;;;5.70;2.85;;;29.20;99.30;;;;;;5118489;27;20085;-86
2022/07/13 10:46:49;;;;;;;5.60;2.42;;;29.20;98.80;;;;;;5118873;27;20039;-82
2022/07/13 10:49:33;;;;;;;3.67;2.40;;;29.10;98.90;;;;;;5100508;27;20054;-85
2022/07/13 10:52:25;;;;;;;3.83;2.53;;;29.20;99.90;;;;;;5101715;27;20479;-82
2022/07/13 10:55:11;;;;;;;4.53;2.47;;;29.20;98.50;;;;;;5136185;27;20407;-82
2022/07/13 10:57:38;;;;;;;4.85;3.00;;;29.10;97.80;;;;;;5136568;27;20144;-82
2022/07/13 11:00:22;;;;;;;7.90;2.83;;;28.80;98.80;;;;;;5117005;27;20046;-82
2022/07/13 11:02:50;;;;;;;3.20;2.28;;;28.60;98.70;;;;;;5118460;27;20046;-81
2022/07/13 11:05:24;;;;;;;4.03;2.35;;;28.60;99.20;;;;;;5117917;27;20117;-82
2022/07/13 11:07:52;;;;;;;5.90;2.38;;;28.30;99.40;;;;;;5136380;27;20051;-82
2022/07/13 11:10:20;;;;;;;6.80;2.78;;;28.20;99.00;;;;;;5136129;27;20058;-82
2022/07/13 11:13:03;;;;;;;6.25;2.60;;;28.10;99.10;;;;;;5136275;27;20043;-82
2022/07/13 11:15:45;;;;;;;3.45;2.22;;;28.10;99.30;;;;;;5136176;27;20192;-82
2022/07/13 11:18:22;;;;;;;5.68;2.22;;;27.90;98.50;;;;;;5117513;27;20082;-82
2022/07/13 11:20:59;;;;;;;4.13;2.40;;;28.10;98.90;;;;;;5118121;27;20069;-81
2022/07/13 11:26:33;;;;;;;4.95;2.30;;;27.90;99.40;;;;;;5135981;27;20047;-83
2022/07/13 11:29:22;;;;;;;4.72;2.17;;;28.20;99.90;;;;;;5134126;27;20058;-82
2022/07/13 11:31:58;;;;;;;4.60;1.95;;;28.10;99.90;;;;;;5117710;27;20039;-81
2022/07/13 11:34:26;;;;;;;5.10;1.90;;;28.40;99.50;;;;;;5117909;27;20043;-82
2022/07/13 11:36:53;;;;;;;4.55;2.03;;;28.60;99.20;;;;;;5135662;27;20035;-82
2022/07/13 11:39:23;;;;;;;3.22;1.65;;;29.80;98.80;;;;;;5135745;27;20043;-83
2022/07/13 11:41:51;;;;;;;4.22;2.30;;;29.30;97.50;;;;;;5117460;27;20417;-82
2022/07/13 11:44:19;;;;;;;3.90;1.70;;;29.50;96.90;;;;;;5135632;27;20082;-82
2022/07/13 11:46:46;;;;;;;3.72;1.88;;;29.60;96.50;;;;;;5135451;27;20051;-82
2022/07/13 11:49:11;;;;;;;3.97;1.35;;;29.70;95.80;;;;;;5117321;27;20088;-82
2022/07/13 11:51:37;;;;;;;2.40;1.70;;;30.00;95.50;;;;;;5135522;27;20043;-82
2022/07/13 11:54:08;;;;;;;3.40;1.63;;;30.00;94.90;;;;;;5117369;27;20126;-83
2022/07/13 11:56:33;;;;;;;4.13;1.75;;;30.20;93.10;;;;;;5135650;27;20069;-83
2022/07/13 11:58:59;;;;;;;2.70;1.48;;;30.30;94.20;;;;;;5135313;27;20035;-82
2022/07/13 12:01:25;;;;;;;3.67;1.30;;;30.50;93.50;;;;;;5116956;27;20130;-83
2022/07/13 12:03:51;;;;;;;4.90;1.40;;;30.40;93.30;;;;;;5135121;27;20483;-83
2022/07/13 12:06:18;;;;;;;2.55;1.40;;;30.50;93.30;;;;;;5117048;27;20046;-82
2022/07/13 12:08:45;;;;;;;4.57;1.60;;;30.80;93.50;;;;;;5135174;27;20053;-82
2022/07/13 12:11:16;;;;;;;2.67;1.40;;;30.90;93.00;;;;;;5134788;27;20064;-82
2022/07/13 12:13:42;;;;;;;3.00;1.48;;;31.00;92.40;;;;;;5135082;27;20104;-83
2022/07/13 12:16:11;;;;;;;5.95;1.90;;;30.70;93.30;;;;;;5116930;27;20051;-82
2022/07/13 12:19:03;;;;;;;4.18;1.50;;;30.50;92.90;;;;;;5116900;27;20439;-82
2022/07/13 12:21:30;;;;;;;3.85;1.52;;;30.40;91.90;;;;;;5117025;27;20039;-83
2022/07/13 12:23:57;;;;;;;2.90;1.38;;;30.40;92.40;;;;;;5134500;27;20051;-85
2022/07/13 12:26:23;;;;;;;3.33;1.23;;;30.40;93.30;;;;;;5116486;27;20046;-83
2022/07/13 12:28:49;;;;;;;3.22;1.40;;;30.40;91.80;;;;;;5099836;28;20047;-83
2022/07/13 12:31:19;;;;;;;1.80;1.15;;;30.20;91.50;;;;;;5134672;27;20483;-83
2022/07/13 12:33:46;;;;;;;2.95;1.30;;;30.20;91.60;;;;;;5116557;27;20039;-82
2022/07/13 12:36:13;;;;;;;4.80;1.48;;;30.30;91.70;;;;;;5116891;27;20085;-83
2022/07/13 12:39:07;;;;;;;3.25;1.30;;;30.40;91.90;;;;;;5116669;27;20043;-83
2022/07/13 12:41:34;;;;;;;3.40;1.23;;;30.40;90.50;;;;;;5134743;27;20047;-83
2022/07/13 12:44:05;;;;;;;3.95;1.48;;;30.30;91.50;;;;;;5116171;28;20043;-81
2022/07/13 12:46:44;;;;;;;3.15;1.40;;;30.20;91.70;;;;;;5128704;27;20501;-82
2022/07/13 12:49:10;;;;;;;7.13;1.40;;;30.10;92.60;;;;;;5134493;27;20398;-82
2022/07/13 12:51:46;;;;;;;3.10;1.50;;;30.10;92.80;;;;;;5137445;27;20042;-83
2022/07/13 12:54:12;;;;;;;5.43;1.40;;;30.20;92.90;;;;;;5155432;27;20288;-83
2022/07/13 12:56:52;;;;;;;4.60;1.73;;;30.50;92.20;;;;;;5136479;27;20478;-83
2022/07/13 12:59:24;;;;;;;2.28;1.30;;;30.50;92.90;;;;;;5133250;27;20035;-82
2022/07/13 13:01:50;;;;;;;5.65;1.65;;;30.70;92.00;;;;;;5146301;27;20085;-83
2022/07/13 13:04:17;;;;;;;4.50;1.53;;;30.80;93.00;;;;;;5106068;28;20078;-82